createdAt,value
2023-05-07T00:00:27.597Z,1.30
2023-05-07T00:02:54.476Z,1.30
2023-05-07T00:05:21.854Z,2.08
2023-05-07T00:07:48.871Z,2.45
2023-05-07T00:10:16.096Z,2.60
2023-05-07T00:12:43.308Z,2.28
2023-05-07T00:15:10.973Z,2.30
2023-05-07T00:17:38.446Z,1.73
2023-05-07T00:20:06.232Z,1.80
2023-05-07T00:22:33.343Z,2.33
2023-05-07T00:25:00.503Z,1.50
2023-05-07T00:27:27.374Z,1.40
2023-05-07T00:29:54.099Z,1.48
2023-05-07T00:32:21.161Z,1.60
2023-05-07T00:34:47.987Z,1.70
2023-05-07T00:37:14.713Z,1.50
2023-05-07T00:39:41.474Z,1.83
2023-05-07T00:42:09.126Z,1.60
2023-05-07T00:44:35.915Z,1.90
2023-05-07T00:47:04.288Z,2.30
2023-05-07T00:49:42.347Z,2.10
2023-05-07T00:52:12.364Z,2.60
2023-05-07T00:54:41.169Z,1.75
2023-05-07T00:57:08.790Z,2.30
2023-05-07T00:59:35.991Z,1.73
2023-05-07T01:02:02.862Z,1.77
2023-05-07T01:04:32.354Z,2.05
2023-05-07T01:07:02.162Z,2.20
2023-05-07T01:09:30.232Z,2.15
2023-05-07T01:14:40.677Z,1.77
2023-05-07T01:17:07.689Z,2.15
2023-05-07T01:23:22.566Z,1.98
2023-05-07T01:25:56.468Z,2.00
2023-05-07T01:28:23.414Z,1.85
2023-05-07T01:31:00.951Z,2.08
2023-05-07T01:33:32.456Z,2.30
2023-05-07T01:36:05.077Z,1.90
2023-05-07T01:38:32.692Z,1.83
2023-05-07T01:40:59.575Z,2.10
2023-05-07T01:43:26.539Z,1.90
2023-05-07T01:45:54.062Z,2.00
2023-05-07T01:48:20.940Z,2.13
2023-05-07T01:50:48.870Z,2.17
2023-05-07T01:53:16.121Z,1.90
2023-05-07T01:55:43.003Z,2.10
2023-05-07T01:58:09.995Z,1.63
2023-05-07T02:00:37.068Z,1.88
2023-05-07T02:03:04.143Z,1.85
2023-05-07T02:05:31.295Z,2.20
2023-05-07T02:07:58.097Z,2.30
2023-05-07T02:10:24.949Z,1.95
2023-05-07T02:12:51.579Z,2.10
2023-05-07T02:15:21.276Z,1.90
2023-05-07T02:18:10.919Z,2.20
2023-05-07T02:20:37.871Z,2.15
2023-05-07T02:23:04.759Z,1.80
2023-05-07T02:25:31.510Z,1.80
2023-05-07T02:27:58.382Z,1.90
2023-05-07T02:30:26.306Z,1.88
2023-05-07T02:32:53.142Z,2.00
2023-05-07T02:35:19.960Z,2.40
2023-05-07T02:37:47.154Z,2.05
2023-05-07T02:40:14.243Z,2.30
2023-05-07T02:42:41.166Z,2.10
2023-05-07T02:45:08.573Z,2.38
2023-05-07T02:47:35.340Z,2.05
2023-05-07T02:50:02.337Z,1.80
2023-05-07T02:52:29.222Z,1.90
2023-05-07T02:54:56.024Z,2.03
2023-05-07T02:57:22.772Z,1.75
2023-05-07T02:59:49.567Z,1.92
2023-05-07T03:02:16.337Z,2.00
2023-05-07T03:04:43.245Z,2.15
2023-05-07T03:07:09.910Z,1.90
2023-05-07T03:09:36.628Z,1.92
2023-05-07T03:12:03.461Z,1.77
2023-05-07T03:14:30.196Z,2.20
2023-05-07T03:16:56.949Z,1.90
2023-05-07T03:19:23.843Z,2.00
2023-05-07T03:21:50.574Z,1.77
2023-05-07T03:28:06.778Z,1.73
2023-05-07T03:30:33.438Z,2.25
2023-05-07T03:33:00.830Z,1.92
2023-05-07T03:35:27.747Z,1.77
2023-05-07T03:37:54.390Z,1.80
2023-05-07T03:40:21.704Z,2.00
2023-05-07T03:42:48.425Z,2.00
2023-05-07T03:45:15.397Z,1.88
2023-05-07T03:47:42.368Z,2.05
2023-05-07T03:50:10.196Z,1.83
2023-05-07T03:52:37.148Z,2.10
2023-05-07T03:55:04.082Z,1.77
2023-05-07T03:57:30.837Z,2.00
2023-05-07T03:59:57.538Z,1.90
2023-05-07T04:02:24.320Z,2.10
2023-05-07T04:04:51.125Z,2.10
2023-05-07T04:07:17.794Z,2.30
2023-05-07T04:09:44.471Z,2.15
2023-05-07T04:12:11.317Z,2.10
2023-05-07T04:14:38.192Z,2.05
2023-05-07T04:17:10.171Z,1.80
2023-05-07T04:19:37.024Z,1.95
2023-05-07T04:22:03.719Z,1.73
2023-05-07T04:24:34.084Z,1.88
2023-05-07T04:27:00.973Z,1.98
2023-05-07T04:29:28.101Z,1.75
2023-05-07T04:31:56.875Z,2.08
2023-05-07T04:34:23.628Z,2.00
2023-05-07T04:36:50.590Z,2.00
2023-05-07T04:39:17.334Z,1.90
2023-05-07T04:41:44.129Z,2.25
2023-05-07T04:44:11.756Z,1.77
2023-05-07T04:46:38.491Z,1.70
2023-05-07T04:49:05.242Z,2.03
2023-05-07T04:51:33.752Z,1.80
2023-05-07T04:54:01.001Z,1.90
2023-05-07T04:56:30.474Z,1.90
2023-05-07T04:58:57.274Z,1.75
2023-05-07T05:01:24.142Z,1.92
2023-05-07T05:03:51.001Z,1.80
2023-05-07T05:06:17.736Z,2.00
2023-05-07T05:08:44.490Z,1.90
2023-05-07T05:11:11.325Z,1.75
2023-05-07T05:13:38.050Z,1.90
2023-05-07T05:16:05.047Z,2.03
2023-05-07T05:18:31.748Z,1.75
2023-05-07T05:20:58.493Z,1.98
2023-05-07T05:23:25.284Z,1.80
2023-05-07T05:25:57.446Z,1.73
2023-05-07T05:28:24.512Z,2.15
2023-05-07T05:30:51.473Z,1.95
2023-05-07T05:33:18.196Z,2.10
2023-05-07T05:35:44.958Z,1.70
2023-05-07T05:38:11.829Z,1.70
2023-05-07T05:40:38.566Z,1.83
2023-05-07T05:43:05.664Z,1.80
2023-05-07T05:45:32.529Z,1.90
2023-05-07T05:47:59.271Z,1.85
2023-05-07T05:50:26.115Z,1.60
2023-05-07T05:52:52.946Z,1.95
2023-05-07T05:55:20.693Z,1.63
2023-05-07T05:57:47.625Z,1.80
2023-05-07T06:00:14.742Z,1.77
2023-05-07T06:02:41.703Z,1.80
2023-05-07T06:05:08.991Z,1.70
2023-05-07T06:07:35.988Z,1.88
2023-05-07T06:10:03.031Z,1.73
2023-05-07T06:12:29.832Z,1.92
2023-05-07T06:14:56.497Z,1.98
2023-05-07T06:17:23.457Z,1.58
2023-05-07T06:19:50.454Z,1.80
2023-05-07T06:22:17.252Z,1.60
2023-05-07T06:24:44.075Z,1.77
2023-05-07T06:27:11.017Z,1.90
2023-05-07T06:29:37.777Z,1.95
2023-05-07T06:32:12.616Z,1.90
2023-05-07T06:34:40.589Z,2.10
2023-05-07T06:37:08.241Z,2.00
2023-05-07T06:39:35.591Z,1.83
2023-05-07T06:42:05.779Z,1.73
2023-05-07T06:44:33.015Z,2.05
2023-05-07T06:46:59.993Z,2.13
2023-05-07T06:49:26.864Z,2.03
2023-05-07T06:51:53.630Z,2.00
2023-05-07T06:54:21.307Z,2.00
2023-05-07T06:56:48.251Z,2.28
2023-05-07T06:59:15.046Z,2.28
2023-05-07T07:01:41.921Z,2.10
2023-05-07T07:04:08.869Z,2.05
2023-05-07T07:06:35.728Z,2.08
2023-05-07T07:09:02.592Z,2.00
2023-05-07T07:11:29.341Z,1.90
2023-05-07T07:13:56.224Z,2.08
2023-05-07T07:16:23.416Z,2.40
2023-05-07T07:18:50.444Z,2.00
2023-05-07T07:21:17.170Z,2.17
2023-05-07T07:23:43.944Z,2.00
2023-05-07T07:26:10.817Z,2.10
2023-05-07T07:28:46.993Z,2.30
2023-05-07T07:31:14.524Z,2.20
2023-05-07T07:33:42.014Z,2.15
2023-05-07T07:36:08.989Z,2.10
2023-05-07T07:38:36.068Z,2.33
2023-05-07T07:41:03.445Z,2.40
2023-05-07T07:43:30.240Z,2.17
2023-05-07T07:45:57.149Z,2.17
2023-05-07T07:48:23.803Z,2.17
2023-05-07T07:50:54.108Z,2.65
2023-05-07T07:53:21.049Z,2.38
2023-05-07T07:55:47.781Z,2.40
2023-05-07T07:58:14.645Z,2.10
2023-05-07T08:00:41.771Z,2.10
2023-05-07T08:03:11.627Z,2.00
2023-05-07T08:05:39.382Z,2.30
2023-05-07T08:08:06.979Z,2.33
2023-05-07T08:10:35.823Z,2.40
2023-05-07T08:13:04.807Z,2.10
2023-05-07T08:15:31.924Z,2.65
2023-05-07T08:18:01.157Z,2.00
2023-05-07T08:20:28.927Z,2.33
2023-05-07T08:22:55.637Z,2.08
2023-05-07T08:25:23.026Z,2.30
2023-05-07T08:27:49.709Z,2.20
2023-05-07T08:30:16.670Z,2.60
2023-05-07T08:32:43.490Z,2.35
2023-05-07T08:35:10.754Z,2.50
2023-05-07T08:37:37.663Z,2.20
2023-05-07T08:40:06.039Z,2.28
2023-05-07T08:42:37.948Z,2.60
2023-05-07T08:45:09.343Z,2.25
2023-05-07T08:47:48.354Z,2.40
2023-05-07T08:50:15.197Z,3.42
2023-05-07T08:52:42.452Z,2.90
2023-05-07T08:55:10.856Z,2.40
2023-05-07T08:57:40.323Z,2.30
2023-05-07T09:00:08.595Z,2.40
2023-05-07T09:02:38.606Z,2.40
2023-05-07T09:05:05.919Z,2.97
2023-05-07T09:07:32.649Z,2.50
2023-05-07T09:10:00.428Z,2.40
2023-05-07T09:12:27.132Z,2.35
2023-05-07T09:14:53.951Z,2.50
2023-05-07T09:17:21.145Z,2.42
2023-05-07T09:19:48.248Z,2.33
2023-05-07T09:22:15.863Z,2.28
2023-05-07T09:24:51.989Z,2.17
2023-05-07T09:27:19.037Z,2.60
2023-05-07T09:29:45.928Z,3.65
2023-05-07T09:32:12.716Z,3.00
2023-05-07T09:34:39.607Z,2.97
2023-05-07T09:37:08.266Z,2.33
2023-05-07T09:39:42.596Z,2.58
2023-05-07T09:42:09.702Z,2.42
2023-05-07T09:44:37.417Z,2.40
2023-05-07T09:47:06.574Z,2.10
2023-05-07T09:49:37.124Z,2.28
2023-05-07T09:52:07.399Z,2.50
2023-05-07T09:54:34.915Z,2.70
2023-05-07T09:57:04.099Z,2.55
2023-05-07T09:59:32.582Z,2.70
2023-05-07T10:02:02.081Z,2.90
2023-05-07T10:04:31.588Z,4.47
2023-05-07T10:06:59.792Z,3.80
2023-05-07T10:09:27.754Z,2.90
2023-05-07T10:11:55.652Z,2.60
2023-05-07T10:14:24.611Z,2.40
2023-05-07T10:16:51.941Z,3.10
2023-05-07T10:19:20.263Z,2.58
2023-05-07T10:21:57.864Z,2.67
2023-05-07T10:24:31.630Z,2.58
2023-05-07T10:27:00.401Z,2.75
2023-05-07T10:29:46.223Z,2.45
2023-05-07T10:32:35.052Z,2.10
2023-05-07T10:35:07.590Z,2.30
2023-05-07T10:37:35.328Z,2.33
2023-05-07T10:40:02.746Z,2.03
2023-05-07T10:42:29.723Z,2.17
2023-05-07T10:44:56.598Z,2.10
2023-05-07T10:47:23.422Z,2.17
2023-05-07T10:49:50.160Z,2.17
2023-05-07T10:52:19.436Z,2.10
2023-05-07T10:54:47.226Z,2.05
2023-05-07T10:57:33.138Z,2.00
2023-05-07T10:59:59.948Z,2.05
2023-05-07T11:03:01.365Z,2.05
2023-05-07T11:05:36.648Z,2.10
2023-05-07T11:08:05.830Z,2.30
2023-05-07T11:10:55.151Z,2.20
2023-05-07T11:14:00.715Z,1.92
2023-05-07T11:16:31.226Z,2.00
2023-05-07T11:18:58.097Z,2.40
2023-05-07T11:21:38.571Z,2.35
2023-05-07T11:24:07.806Z,2.10
2023-05-07T11:26:53.292Z,2.00
2023-05-07T11:29:23.361Z,2.07
2023-05-07T11:31:55.762Z,2.00
2023-05-07T11:34:24.538Z,2.10
2023-05-07T11:36:52.305Z,2.10
2023-05-07T11:39:25.781Z,2.10
2023-05-07T11:41:53.558Z,2.22
2023-05-07T11:44:20.516Z,2.00
2023-05-07T11:46:47.470Z,2.20
2023-05-07T11:49:14.462Z,1.90
2023-05-07T11:51:42.879Z,2.00
2023-05-07T11:54:12.232Z,2.05
2023-05-07T11:56:39.894Z,1.95
2023-05-07T11:59:07.265Z,1.88
2023-05-07T12:01:36.614Z,2.00
2023-05-07T12:04:05.628Z,1.90
2023-05-07T12:06:32.393Z,1.90
2023-05-07T12:08:59.427Z,1.80
2023-05-07T12:11:27.307Z,1.90
2023-05-07T12:13:58.955Z,1.80
2023-05-07T12:16:26.606Z,1.70
2023-05-07T12:18:56.045Z,1.90
2023-05-07T12:21:24.407Z,1.90
2023-05-07T12:23:51.513Z,2.00
2023-05-07T12:26:20.045Z,1.80
2023-05-07T12:28:47.478Z,1.60
2023-05-07T12:31:15.979Z,1.80
2023-05-07T12:33:43.260Z,1.70
2023-05-07T12:36:10.485Z,1.90
2023-05-07T12:38:38.863Z,1.80
2023-05-07T12:41:08.239Z,1.75
2023-05-07T12:43:35.286Z,1.70
2023-05-07T12:46:05.445Z,1.70
2023-05-07T12:48:33.102Z,1.70
2023-05-07T12:51:02.827Z,1.40
2023-05-07T12:53:31.264Z,1.40
2023-05-07T12:56:00.108Z,1.40
2023-05-07T12:58:32.112Z,1.20
2023-05-07T13:01:02.735Z,1.10
2023-05-07T13:03:34.576Z,1.30
2023-05-07T13:06:13.630Z,1.30
2023-05-07T13:08:44.488Z,1.23
2023-05-07T13:11:12.591Z,1.38
2023-05-07T13:13:41.707Z,1.30
2023-05-07T13:16:11.671Z,1.48
2023-05-07T13:18:40.669Z,2.03
2023-05-07T13:21:07.728Z,1.40
2023-05-07T13:23:35.120Z,2.30
2023-05-07T13:26:08.658Z,1.77
2023-05-07T13:28:41.830Z,1.55
2023-05-07T13:31:08.563Z,1.50
2023-05-07T13:33:35.425Z,1.50
2023-05-07T13:36:04.833Z,1.40
2023-05-07T13:38:32.024Z,1.40
2023-05-07T13:40:58.796Z,1.20
2023-05-07T13:43:26.037Z,1.48
2023-05-07T13:45:52.786Z,1.40
2023-05-07T13:48:19.633Z,1.40
2023-05-07T13:50:46.494Z,1.50
2023-05-07T13:53:13.365Z,1.30
2023-05-07T13:55:40.359Z,1.30
2023-05-07T13:58:07.612Z,1.25
2023-05-07T14:00:34.748Z,1.13
2023-05-07T14:03:01.667Z,1.30
2023-05-07T14:05:31.463Z,1.23
2023-05-07T14:07:59.038Z,1.50
2023-05-07T14:10:25.909Z,1.23
2023-05-07T14:12:53.829Z,1.63
2023-05-07T14:15:20.825Z,1.80
2023-05-07T14:17:48.058Z,1.60
2023-05-07T14:20:15.509Z,1.30
2023-05-07T14:22:42.569Z,1.40
2023-05-07T14:25:10.879Z,1.15
2023-05-07T14:27:38.385Z,1.50
2023-05-07T14:30:05.834Z,1.38
2023-05-07T14:32:33.949Z,1.60
2023-05-07T14:35:01.131Z,1.30
2023-05-07T14:37:28.183Z,1.25
2023-05-07T14:39:55.420Z,4.22
2023-05-07T14:42:22.406Z,1.52
2023-05-07T14:44:49.525Z,1.30
2023-05-07T14:47:18.300Z,1.30
2023-05-07T14:49:46.549Z,1.40
2023-05-07T14:52:13.798Z,1.45
2023-05-07T14:54:42.296Z,6.72
2023-05-07T14:57:11.485Z,1.77
2023-05-07T14:59:39.369Z,2.00
2023-05-07T15:02:09.057Z,1.60
2023-05-07T15:04:36.174Z,1.50
2023-05-07T15:07:02.936Z,1.20
2023-05-07T15:09:30.751Z,1.52
2023-05-07T15:11:57.574Z,1.70
2023-05-07T15:14:24.322Z,1.60
2023-05-07T15:16:51.049Z,1.77
2023-05-07T15:19:18.127Z,2.28
2023-05-07T15:21:45.268Z,1.80
2023-05-07T15:24:12.112Z,4.68
2023-05-07T15:26:38.977Z,3.45
2023-05-07T15:29:11.112Z,2.53
2023-05-07T15:31:40.012Z,2.20
2023-05-07T15:34:07.521Z,2.38
2023-05-07T15:36:34.580Z,2.50
2023-05-07T15:39:03.716Z,2.30
2023-05-07T15:41:30.788Z,2.80
2023-05-07T15:43:57.595Z,2.60
2023-05-07T15:46:26.165Z,2.60
2023-05-07T15:48:54.281Z,3.10
2023-05-07T15:51:21.236Z,3.08
2023-05-07T15:53:48.964Z,5.18
2023-05-07T15:56:15.909Z,5.60
2023-05-07T15:58:42.671Z,4.75
2023-05-07T16:01:09.640Z,4.03
2023-05-07T16:03:36.743Z,4.18
2023-05-07T16:06:03.784Z,4.68
2023-05-07T16:08:31.037Z,3.22
2023-05-07T16:10:57.955Z,3.92
2023-05-07T16:13:25.238Z,4.90
2023-05-07T16:15:59.213Z,4.25
2023-05-07T16:18:26.216Z,3.17
2023-05-07T16:20:54.241Z,3.40
2023-05-07T16:23:22.298Z,3.67
2023-05-07T16:25:49.984Z,2.30
2023-05-07T16:28:16.887Z,2.50
2023-05-07T16:30:44.071Z,2.67
2023-05-07T16:33:10.995Z,2.53
2023-05-07T16:35:40.874Z,2.40
2023-05-07T16:38:10.471Z,2.20
2023-05-07T16:40:40.517Z,2.20
2023-05-07T16:43:07.546Z,2.17
2023-05-07T16:45:34.624Z,2.72
2023-05-07T16:48:03.483Z,2.00
2023-05-07T16:50:30.522Z,1.83
2023-05-07T16:52:57.380Z,2.35
2023-05-07T16:55:24.238Z,2.38
2023-05-07T16:57:51.018Z,2.17
2023-05-07T17:00:18.112Z,2.50
2023-05-07T17:02:45.814Z,2.20
2023-05-07T17:05:12.989Z,2.30
2023-05-07T17:07:40.160Z,2.40
2023-05-07T17:10:07.362Z,2.30
2023-05-07T17:12:35.789Z,2.05
2023-05-07T17:15:03.435Z,2.40
2023-05-07T17:17:30.474Z,2.28
2023-05-07T17:19:57.433Z,2.22
2023-05-07T17:22:25.454Z,2.10
2023-05-07T17:24:52.395Z,1.88
2023-05-07T17:27:20.697Z,1.60
2023-05-07T17:29:47.452Z,1.75
2023-05-07T17:32:14.437Z,1.60
2023-05-07T17:34:41.385Z,1.45
2023-05-07T17:37:08.448Z,1.90
2023-05-07T17:39:35.524Z,1.70
2023-05-07T17:42:02.269Z,1.80
2023-05-07T17:44:29.468Z,1.65
2023-05-07T17:46:56.496Z,1.70
2023-05-07T17:49:23.227Z,1.70
2023-05-07T17:51:54.812Z,1.77
2023-05-07T17:54:24.057Z,1.90
2023-05-07T17:56:50.855Z,2.25
2023-05-07T17:59:17.700Z,2.00
2023-05-07T18:01:45.176Z,1.70
2023-05-07T18:04:11.970Z,2.08
2023-05-07T18:06:39.782Z,2.13
2023-05-07T18:09:06.533Z,2.40
2023-05-07T18:11:33.757Z,2.10
2023-05-07T18:14:01.254Z,2.50
2023-05-07T18:16:28.192Z,2.70
2023-05-07T18:18:55.837Z,2.67
2023-05-07T18:21:22.607Z,2.83
2023-05-07T18:23:49.592Z,2.78
2023-05-07T18:26:16.679Z,3.03
2023-05-07T18:28:43.764Z,2.85
2023-05-07T18:31:10.834Z,2.90
2023-05-07T18:33:37.992Z,2.92
2023-05-07T18:36:05.114Z,2.90
2023-05-07T18:38:32.241Z,3.75
2023-05-07T18:41:05.581Z,3.60
2023-05-07T18:43:33.688Z,6.97
2023-05-07T18:46:01.035Z,4.95
2023-05-07T18:48:28.172Z,3.80
2023-05-07T18:50:55.526Z,3.72
2023-05-07T18:53:22.324Z,4.20
2023-05-07T18:55:52.964Z,4.03
2023-05-07T18:58:20.193Z,4.60
2023-05-07T19:00:48.828Z,4.50
2023-05-07T19:03:16.993Z,5.65
2023-05-07T19:05:44.860Z,5.75
2023-05-07T19:08:11.932Z,11.77
2023-05-07T19:10:39.537Z,5.63
2023-05-07T19:13:06.747Z,8.02
2023-05-07T19:15:34.108Z,6.40
2023-05-07T19:18:01.108Z,5.13
2023-05-07T19:20:29.081Z,5.68
2023-05-07T19:22:56.721Z,5.07
2023-05-07T19:25:23.672Z,5.13
2023-05-07T19:27:51.281Z,5.00
2023-05-07T19:30:18.139Z,5.28
2023-05-07T19:32:44.882Z,5.72
2023-05-07T19:35:11.990Z,5.68
2023-05-07T19:37:39.497Z,5.70
2023-05-07T19:40:07.228Z,5.78
2023-05-07T19:42:34.076Z,5.60
2023-05-07T19:45:05.191Z,5.53
2023-05-07T19:47:32.248Z,5.28
2023-05-07T19:49:59.033Z,5.25
2023-05-07T19:52:26.428Z,5.70
2023-05-07T19:54:53.198Z,5.80
2023-05-07T19:57:20.035Z,5.82
2023-05-07T19:59:47.201Z,5.80
2023-05-07T20:02:15.303Z,5.47
2023-05-07T20:04:42.214Z,5.60
2023-05-07T20:07:08.934Z,5.03
2023-05-07T20:09:35.817Z,4.97
2023-05-07T20:12:02.627Z,5.82
2023-05-07T20:14:30.630Z,5.30
2023-05-07T20:16:57.749Z,5.80
2023-05-07T20:19:27.195Z,5.20
2023-05-07T20:21:53.880Z,5.25
2023-05-07T20:24:20.658Z,6.00
2023-05-07T20:26:47.461Z,5.53
2023-05-07T20:29:14.195Z,5.53
2023-05-07T20:31:41.024Z,5.13
2023-05-07T20:34:08.118Z,5.45
2023-05-07T20:36:35.980Z,5.57
2023-05-07T20:39:04.272Z,5.57
2023-05-07T20:41:31.017Z,5.88
2023-05-07T20:43:57.865Z,5.60
2023-05-07T20:46:25.620Z,5.70
2023-05-07T20:48:52.739Z,5.10
2023-05-07T20:51:19.474Z,5.55
2023-05-07T20:53:48.027Z,5.32
2023-05-07T20:56:15.585Z,6.00
2023-05-07T20:58:42.370Z,5.18
2023-05-07T21:01:09.586Z,5.53
2023-05-07T21:03:36.458Z,5.18
2023-05-07T21:06:04.182Z,5.45
2023-05-07T21:08:31.438Z,5.40
2023-05-07T21:10:58.369Z,4.65
2023-05-07T21:13:25.298Z,4.82
2023-05-07T21:41:09.971Z,3.90
2023-05-07T21:43:36.738Z,4.20
2023-05-07T21:46:10.118Z,4.07
2023-05-07T21:48:38.630Z,4.00
2023-05-07T21:51:07.156Z,4.03
2023-05-07T21:53:34.750Z,3.90
2023-05-07T21:59:05.808Z,4.00
2023-05-07T22:01:32.878Z,3.63
2023-05-07T22:03:59.818Z,4.03
2023-05-07T22:06:27.249Z,4.40
2023-05-07T22:08:53.979Z,4.35
2023-05-07T22:11:21.840Z,4.20
2023-05-07T22:13:48.740Z,3.97
2023-05-07T22:16:15.741Z,4.30
2023-05-07T22:18:43.711Z,4.20
2023-05-07T22:21:10.726Z,4.47
2023-05-07T22:23:37.492Z,4.35
2023-05-07T22:26:49.278Z,4.35
2023-05-07T22:29:16.070Z,4.93
2023-05-07T22:31:42.944Z,5.18
2023-05-07T22:34:09.753Z,4.72
2023-05-07T22:36:36.486Z,4.95
2023-05-07T22:42:44.075Z,5.55
2023-05-07T22:49:48.310Z,5.85
2023-05-07T22:55:56.199Z,6.55
2023-05-07T22:58:23.650Z,6.57
2023-05-07T23:00:50.478Z,7.15
2023-05-07T23:03:17.682Z,7.10
2023-05-07T23:05:44.782Z,7.15
2023-05-07T23:08:11.503Z,7.20
2023-05-07T23:10:38.311Z,6.68
2023-05-07T23:13:05.395Z,7.28
2023-05-07T23:15:33.394Z,7.20
2023-05-07T23:18:00.594Z,8.30
2023-05-07T23:20:27.600Z,9.20
2023-05-07T23:22:54.919Z,9.77
2023-05-07T23:25:21.722Z,10.85
2023-05-07T23:27:49.934Z,11.20
2023-05-07T23:30:16.950Z,11.50
2023-05-07T23:32:43.770Z,12.65
2023-05-07T23:35:10.797Z,11.95
2023-05-07T23:37:37.682Z,12.27
2023-05-07T23:40:05.153Z,13.27
2023-05-07T23:42:32.039Z,13.10
2023-05-07T23:44:58.739Z,14.30
2023-05-07T23:47:25.656Z,13.45
2023-05-07T23:49:52.570Z,13.73
2023-05-07T23:52:19.441Z,13.68
